sensor_id;sensor_type;location;lat;lon;timestamp;pressure;altitude;pressure_sealevel;temperature;humidity
58245;BME280;44550;43.864;25.986;2023-06-22T00:01:25;101319.00;;;24.31;82.95
58245;BME280;44550;43.864;25.986;2023-06-22T00:06:09;101316.44;;;24.28;83.26
58245;BME280;44550;43.864;25.986;2023-06-22T00:11:01;101321.22;;;24.20;83.82
58245;BME280;44550;43.864;25.986;2023-06-22T00:26:19;101310.81;;;23.90;85.15
58245;BME280;44550;43.864;25.986;2023-06-22T00:31:16;101300.66;;;23.78;86.09
58245;BME280;44550;43.864;25.986;2023-06-22T00:36:26;101299.81;;;23.76;86.52
58245;BME280;44550;43.864;25.986;2023-06-22T00:41:26;101300.44;;;23.59;87.25
58245;BME280;44550;43.864;25.986;2023-06-22T00:46:10;101306.69;;;23.34;90.82
58245;BME280;44550;43.864;25.986;2023-06-22T00:56:25;101305.63;;;22.90;98.45
58245;BME280;44550;43.864;25.986;2023-06-22T01:06:13;101324.41;;;22.62;100.00
58245;BME280;44550;43.864;25.986;2023-06-22T01:10:58;101311.31;;;22.54;100.00
58245;BME280;44550;43.864;25.986;2023-06-22T01:15:51;101309.38;;;22.59;100.00
58245;BME280;44550;43.864;25.986;2023-06-22T01:20:30;101309.16;;;22.39;100.00
58245;BME280;44550;43.864;25.986;2023-06-22T01:25:07;101307.84;;;21.96;100.00
58245;BME280;44550;43.864;25.986;2023-06-22T01:30:12;101298.78;;;21.73;100.00
58245;BME280;44550;43.864;25.986;2023-06-22T01:35:00;101276.25;;;21.55;100.00
58245;BME280;44550;43.864;25.986;2023-06-22T01:39:20;101312.19;;;21.70;100.00
58245;BME280;44550;43.864;25.986;2023-06-22T01:54:30;101319.19;;;22.02;100.00
58245;BME280;44550;43.864;25.986;2023-06-22T02:04:28;101322.31;;;22.43;100.00
58245;BME280;44550;43.864;25.986;2023-06-22T02:08:48;101336.19;;;23.06;100.00
58245;BME280;44550;43.864;25.986;2023-06-22T02:13:27;101341.53;;;23.31;96.80
58245;BME280;44550;43.864;25.986;2023-06-22T02:18:31;101332.22;;;23.18;96.36
58245;BME280;44550;43.864;25.986;2023-06-22T02:23:50;101349.81;;;22.98;97.04
58245;BME280;44550;43.864;25.986;2023-06-22T02:28:59;101351.94;;;22.87;98.21
58245;BME280;44550;43.864;25.986;2023-06-22T02:33:12;101346.50;;;22.90;97.73
58245;BME280;44550;43.864;25.986;2023-06-22T02:37:38;101354.66;;;22.86;97.83
58245;BME280;44550;43.864;25.986;2023-06-22T02:42:44;101363.06;;;22.73;98.82
58245;BME280;44550;43.864;25.986;2023-06-22T02:47:02;101368.03;;;22.58;100.00
58245;BME280;44550;43.864;25.986;2023-06-22T02:51:32;101373.78;;;22.45;100.00
58245;BME280;44550;43.864;25.986;2023-06-22T02:56:17;101391.22;;;22.56;100.00
58245;BME280;44550;43.864;25.986;2023-06-22T03:00:47;101381.44;;;22.83;98.29
58245;BME280;44550;43.864;25.986;2023-06-22T03:04:58;101396.97;;;22.98;96.70
58245;BME280;44550;43.864;25.986;2023-06-22T03:09:39;101401.63;;;22.90;96.78
58245;BME280;44550;43.864;25.986;2023-06-22T03:19:50;101397.78;;;22.45;98.93
58245;BME280;44550;43.864;25.986;2023-06-22T03:30:05;101397.72;;;22.47;98.92
58245;BME280;44550;43.864;25.986;2023-06-22T03:35:05;101378.44;;;22.39;98.95
58245;BME280;44550;43.864;25.986;2023-06-22T03:46:10;101383.47;;;23.76;92.29
58245;BME280;44550;43.864;25.986;2023-06-22T03:55:37;101377.72;;;24.76;84.79
58245;BME280;44550;43.864;25.986;2023-06-22T04:00:24;101386.59;;;25.19;82.12
58245;BME280;44550;43.864;25.986;2023-06-22T04:05:16;101381.84;;;25.46;79.30
58245;BME280;44550;43.864;25.986;2023-06-22T04:10:04;101390.19;;;25.78;77.26
58245;BME280;44550;43.864;25.986;2023-06-22T04:31:26;101380.56;;;27.21;68.66
58245;BME280;44550;43.864;25.986;2023-06-22T04:41:36;101408.06;;;27.59;64.74
58245;BME280;44550;43.864;25.986;2023-06-22T04:51:59;101419.28;;;26.80;67.09
58245;BME280;44550;43.864;25.986;2023-06-22T04:56:52;101423.44;;;27.22;65.93
58245;BME280;44550;43.864;25.986;2023-06-22T05:01:14;101437.66;;;27.24;65.75
58245;BME280;44550;43.864;25.986;2023-06-22T05:11:51;101425.16;;;27.40;65.47
58245;BME280;44550;43.864;25.986;2023-06-22T05:16:29;101427.16;;;27.20;66.66
58245;BME280;44550;43.864;25.986;2023-06-22T05:21:48;101418.88;;;27.57;66.27
58245;BME280;44550;43.864;25.986;2023-06-22T05:43:06;101429.69;;;27.73;65.12
58245;BME280;44550;43.864;25.986;2023-06-22T05:47:55;101419.44;;;28.13;62.77
58245;BME280;44550;43.864;25.986;2023-06-22T05:52:11;101427.97;;;28.53;62.47
58245;BME280;44550;43.864;25.986;2023-06-22T06:01:48;101413.16;;;28.46;62.98
58245;BME280;44550;43.864;25.986;2023-06-22T06:11:32;101406.22;;;28.42;61.60
58245;BME280;44550;43.864;25.986;2023-06-22T06:22:25;101423.13;;;28.28;55.41
58245;BME280;44550;43.864;25.986;2023-06-22T06:27:13;101423.63;;;28.50;54.37
58245;BME280;44550;43.864;25.986;2023-06-22T06:42:15;101420.06;;;28.66;53.29
58245;BME280;44550;43.864;25.986;2023-06-22T06:47:00;101421.59;;;28.86;53.58
58245;BME280;44550;43.864;25.986;2023-06-22T06:51:54;101426.22;;;29.14;52.08
58245;BME280;44550;43.864;25.986;2023-06-22T06:56:48;101423.34;;;29.17;51.23
58245;BME280;44550;43.864;25.986;2023-06-22T07:01:25;101417.22;;;28.99;51.21
58245;BME280;44550;43.864;25.986;2023-06-22T07:05:57;101415.94;;;29.20;49.34
58245;BME280;44550;43.864;25.986;2023-06-22T07:17:21;101415.19;;;29.33;47.92
58245;BME280;44550;43.864;25.986;2023-06-22T07:23:00;101424.38;;;28.84;50.67
58245;BME280;44550;43.864;25.986;2023-06-22T07:28:24;101425.03;;;29.48;49.34
58245;BME280;44550;43.864;25.986;2023-06-22T07:33:35;101424.00;;;30.08;46.88
58245;BME280;44550;43.864;25.986;2023-06-22T07:38:29;101398.53;;;29.70;48.20
58245;BME280;44550;43.864;25.986;2023-06-22T07:49:06;101422.44;;;30.18;45.12
58245;BME280;44550;43.864;25.986;2023-06-22T07:53:56;101419.19;;;28.81;47.21
58245;BME280;44550;43.864;25.986;2023-06-22T07:58:56;101421.31;;;29.65;45.22
58245;BME280;44550;43.864;25.986;2023-06-22T08:03:13;101424.97;;;30.07;43.84
58245;BME280;44550;43.864;25.986;2023-06-22T08:12:58;101415.09;;;30.34;44.22
58245;BME280;44550;43.864;25.986;2023-06-22T08:22:21;101427.56;;;30.08;44.74
58245;BME280;44550;43.864;25.986;2023-06-22T08:26:59;101419.22;;;30.67;43.83
58245;BME280;44550;43.864;25.986;2023-06-22T08:37:49;101423.34;;;30.73;46.57
58245;BME280;44550;43.864;25.986;2023-06-22T08:43:57;101418.69;;;31.02;45.95
58245;BME280;44550;43.864;25.986;2023-06-22T08:53:48;101420.50;;;30.88;44.13
58245;BME280;44550;43.864;25.986;2023-06-22T08:58:08;101416.44;;;31.08;44.10
58245;BME280;44550;43.864;25.986;2023-06-22T09:13:30;101417.28;;;30.83;45.29
58245;BME280;44550;43.864;25.986;2023-06-22T09:23:08;101412.72;;;30.57;43.70
58245;BME280;44550;43.864;25.986;2023-06-22T09:27:30;101413.78;;;30.27;41.30
58245;BME280;44550;43.864;25.986;2023-06-22T09:37:50;101409.16;;;30.83;41.95
58245;BME280;44550;43.864;25.986;2023-06-22T09:42:49;101402.81;;;30.97;39.53
58245;BME280;44550;43.864;25.986;2023-06-22T09:47:23;101402.06;;;31.08;36.38
58245;BME280;44550;43.864;25.986;2023-06-22T10:27:36;101396.47;;;32.00;37.22
58245;BME280;44550;43.864;25.986;2023-06-22T10:37:00;101380.88;;;32.04;37.79
58245;BME280;44550;43.864;25.986;2023-06-22T10:41:42;101376.72;;;31.49;39.97
58245;BME280;44550;43.864;25.986;2023-06-22T10:46:35;101373.19;;;31.98;39.74
58245;BME280;44550;43.864;25.986;2023-06-22T10:51:45;101358.81;;;32.21;38.80
58245;BME280;44550;43.864;25.986;2023-06-22T10:56:03;101356.09;;;31.97;40.12
58245;BME280;44550;43.864;25.986;2023-06-22T11:00:44;101357.91;;;32.34;37.30
58245;BME280;44550;43.864;25.986;2023-06-22T11:05:34;101359.38;;;32.26;37.71
58245;BME280;44550;43.864;25.986;2023-06-22T11:10:20;101335.47;;;32.20;38.56
58245;BME280;44550;43.864;25.986;2023-06-22T11:26:08;101354.44;;;32.32;38.33
58245;BME280;44550;43.864;25.986;2023-06-22T11:31:14;101346.84;;;32.49;37.38
58245;BME280;44550;43.864;25.986;2023-06-22T11:37:08;101352.09;;;32.27;37.32
58245;BME280;44550;43.864;25.986;2023-06-22T11:46:33;101315.13;;;32.63;37.93
58245;BME280;44550;43.864;25.986;2023-06-22T11:51:43;101319.72;;;32.85;36.81
58245;BME280;44550;43.864;25.986;2023-06-22T11:56:25;101334.50;;;33.38;36.92
58245;BME280;44550;43.864;25.986;2023-06-22T12:00:30;101323.41;;;33.64;35.62
58245;BME280;44550;43.864;25.986;2023-06-22T12:05:59;101327.94;;;33.07;36.31
58245;BME280;44550;43.864;25.986;2023-06-22T12:11:07;101333.16;;;32.75;37.52
58245;BME280;44550;43.864;25.986;2023-06-22T12:25:15;101319.25;;;33.71;36.21
58245;BME280;44550;43.864;25.986;2023-06-22T12:35:12;101298.50;;;33.48;37.68
58245;BME280;44550;43.864;25.986;2023-06-22T12:39:48;101299.25;;;33.16;38.62
58245;BME280;44550;43.864;25.986;2023-06-22T12:44:00;101285.72;;;33.38;37.26
58245;BME280;44550;43.864;25.986;2023-06-22T12:48:22;101280.75;;;33.43;36.76
58245;BME280;44550;43.864;25.986;2023-06-22T12:59:39;101281.50;;;33.57;36.66
58245;BME280;44550;43.864;25.986;2023-06-22T13:02:36;101282.44;;;33.89;36.15
58245;BME280;44550;43.864;25.986;2023-06-22T13:06:59;101278.81;;;34.11;36.33
58245;BME280;44550;43.864;25.986;2023-06-22T13:11:46;101282.84;;;33.74;36.30
58245;BME280;44550;43.864;25.986;2023-06-22T13:16:24;101267.81;;;33.47;35.92
58245;BME280;44550;43.864;25.986;2023-06-22T13:20:42;101267.72;;;33.49;35.84
58245;BME280;44550;43.864;25.986;2023-06-22T13:25:10;101264.47;;;33.43;36.77
58245;BME280;44550;43.864;25.986;2023-06-22T13:30:18;101248.59;;;33.39;36.74
58245;BME280;44550;43.864;25.986;2023-06-22T13:34:55;101255.50;;;33.65;35.89
58245;BME280;44550;43.864;25.986;2023-06-22T13:39:27;101254.22;;;34.24;34.80
58245;BME280;44550;43.864;25.986;2023-06-22T13:44:11;101246.50;;;33.97;35.99
58245;BME280;44550;43.864;25.986;2023-06-22T13:53:59;101240.56;;;33.71;35.88
58245;BME280;44550;43.864;25.986;2023-06-22T14:03:56;101238.13;;;33.45;36.75
58245;BME280;44550;43.864;25.986;2023-06-22T14:08:44;101235.06;;;33.39;36.14
58245;BME280;44550;43.864;25.986;2023-06-22T14:13:14;101223.47;;;33.14;36.21
58245;BME280;44550;43.864;25.986;2023-06-22T14:17:16;101230.56;;;32.70;37.81
58245;BME280;44550;43.864;25.986;2023-06-22T14:21:31;101227.53;;;32.86;37.40
58245;BME280;44550;43.864;25.986;2023-06-22T14:31:44;101212.63;;;33.14;36.36
58245;BME280;44550;43.864;25.986;2023-06-22T14:36:27;101193.31;;;32.96;36.45
58245;BME280;44550;43.864;25.986;2023-06-22T14:45:45;101188.66;;;32.98;36.24
58245;BME280;44550;43.864;25.986;2023-06-22T14:55:47;101201.53;;;32.84;37.04
58245;BME280;44550;43.864;25.986;2023-06-22T15:00:42;101202.41;;;32.73;36.80
58245;BME280;44550;43.864;25.986;2023-06-22T15:05:07;101198.72;;;32.85;36.38
58245;BME280;44550;43.864;25.986;2023-06-22T15:21:02;101200.91;;;32.80;36.14
58245;BME280;44550;43.864;25.986;2023-06-22T15:36:53;101203.13;;;33.42;36.95
58245;BME280;44550;43.864;25.986;2023-06-22T15:41:19;101204.59;;;33.47;36.39
58245;BME280;44550;43.864;25.986;2023-06-22T15:46:25;101196.22;;;33.93;35.22
58245;BME280;44550;43.864;25.986;2023-06-22T15:51:26;101194.53;;;34.13;35.47
58245;BME280;44550;43.864;25.986;2023-06-22T15:56:57;101203.16;;;33.86;33.66
58245;BME280;44550;43.864;25.986;2023-06-22T16:01:49;101207.69;;;33.42;34.46
58245;BME280;44550;43.864;25.986;2023-06-22T16:07:03;101216.44;;;33.45;34.93
58245;BME280;44550;43.864;25.986;2023-06-22T16:12:05;101222.22;;;33.63;35.24
58245;BME280;44550;43.864;25.986;2023-06-22T16:17:39;101225.16;;;33.72;34.43
58245;BME280;44550;43.864;25.986;2023-06-22T16:27:28;101220.59;;;32.71;37.53
58245;BME280;44550;43.864;25.986;2023-06-22T16:33:21;101219.94;;;32.45;38.96
58245;BME280;44550;43.864;25.986;2023-06-22T16:38:07;101220.16;;;32.07;40.69
58245;BME280;44550;43.864;25.986;2023-06-22T16:43:09;101220.16;;;31.82;41.37
58245;BME280;44550;43.864;25.986;2023-06-22T16:47:17;101217.00;;;31.89;41.62
58245;BME280;44550;43.864;25.986;2023-06-22T16:51:26;101214.66;;;31.71;42.09
58245;BME280;44550;43.864;25.986;2023-06-22T16:55:29;101199.53;;;31.69;42.32
58245;BME280;44550;43.864;25.986;2023-06-22T16:59:36;101195.38;;;31.52;42.83
58245;BME280;44550;43.864;25.986;2023-06-22T17:04:00;101207.00;;;31.65;42.78
58245;BME280;44550;43.864;25.986;2023-06-22T17:08:15;101198.56;;;31.70;42.54
58245;BME280;44550;43.864;25.986;2023-06-22T17:12:21;101210.84;;;31.63;43.14
58245;BME280;44550;43.864;25.986;2023-06-22T17:16:35;101213.34;;;31.77;43.17
58245;BME280;44550;43.864;25.986;2023-06-22T17:20:48;101194.59;;;31.63;43.73
58245;BME280;44550;43.864;25.986;2023-06-22T17:24:52;101206.06;;;31.90;43.23
58245;BME280;44550;43.864;25.986;2023-06-22T17:33:58;101205.50;;;31.85;43.92
58245;BME280;44550;43.864;25.986;2023-06-22T17:38:23;101202.66;;;31.39;44.69
58245;BME280;44550;43.864;25.986;2023-06-22T17:42:34;101202.78;;;31.37;44.86
58245;BME280;44550;43.864;25.986;2023-06-22T17:46:44;101196.31;;;31.40;44.29
58245;BME280;44550;43.864;25.986;2023-06-22T17:50:53;101207.34;;;31.24;44.37
58245;BME280;44550;43.864;25.986;2023-06-22T17:55:08;101206.91;;;31.30;44.35
58245;BME280;44550;43.864;25.986;2023-06-22T17:59:18;101206.38;;;31.12;44.87
58245;BME280;44550;43.864;25.986;2023-06-22T18:03:25;101205.75;;;31.08;44.76
58245;BME280;44550;43.864;25.986;2023-06-22T18:07:34;101210.81;;;31.13;44.43
58245;BME280;44550;43.864;25.986;2023-06-22T18:11:46;101201.84;;;31.12;43.47
58245;BME280;44550;43.864;25.986;2023-06-22T18:16:10;101218.16;;;31.37;43.51
58245;BME280;44550;43.864;25.986;2023-06-22T18:20:51;101227.50;;;31.56;43.37
58245;BME280;44550;43.864;25.986;2023-06-22T18:25:01;101216.41;;;31.35;44.12
58245;BME280;44550;43.864;25.986;2023-06-22T18:29:18;101208.19;;;31.24;44.69
58245;BME280;44550;43.864;25.986;2023-06-22T18:33:33;101236.31;;;31.34;44.81
58245;BME280;44550;43.864;25.986;2023-06-22T18:37:48;101236.41;;;31.46;44.76
58245;BME280;44550;43.864;25.986;2023-06-22T18:42:11;101246.56;;;31.29;43.63
58245;BME280;44550;43.864;25.986;2023-06-22T18:46:59;101239.34;;;30.79;44.95
58245;BME280;44550;43.864;25.986;2023-06-22T18:51:10;101249.78;;;30.58;45.75
58245;BME280;44550;43.864;25.986;2023-06-22T18:55:11;101235.34;;;30.19;46.52
58245;BME280;44550;43.864;25.986;2023-06-22T18:59:15;101245.66;;;30.27;46.67
58245;BME280;44550;43.864;25.986;2023-06-22T19:03:30;101243.19;;;30.49;47.14
58245;BME280;44550;43.864;25.986;2023-06-22T19:07:56;101245.47;;;30.55;47.74
58245;BME280;44550;43.864;25.986;2023-06-22T19:12:21;101241.03;;;30.54;47.12
58245;BME280;44550;43.864;25.986;2023-06-22T19:16:46;101252.25;;;30.48;47.61
58245;BME280;44550;43.864;25.986;2023-06-22T19:20:51;101251.59;;;30.05;47.84
58245;BME280;44550;43.864;25.986;2023-06-22T19:24:52;101249.94;;;29.75;48.70
58245;BME280;44550;43.864;25.986;2023-06-22T19:29:15;101258.25;;;29.99;48.19
58245;BME280;44550;43.864;25.986;2023-06-22T19:33:29;101250.66;;;29.91;52.86
58245;BME280;44550;43.864;25.986;2023-06-22T19:37:35;101260.09;;;30.26;50.91
58245;BME280;44550;43.864;25.986;2023-06-22T19:41:40;101258.00;;;30.69;49.75
58245;BME280;44550;43.864;25.986;2023-06-22T19:45:45;101257.84;;;30.98;48.47
58245;BME280;44550;43.864;25.986;2023-06-22T19:49:58;101244.53;;;30.95;47.27
58245;BME280;44550;43.864;25.986;2023-06-22T19:54:07;101258.69;;;30.85;47.33
58245;BME280;44550;43.864;25.986;2023-06-22T19:58:22;101255.84;;;30.74;47.73
58245;BME280;44550;43.864;25.986;2023-06-22T20:02:34;101268.59;;;30.72;48.19
58245;BME280;44550;43.864;25.986;2023-06-22T20:06:42;101256.72;;;30.75;48.26
58245;BME280;44550;43.864;25.986;2023-06-22T20:16:29;101223.63;;;30.46;48.99
58245;BME280;44550;43.864;25.986;2023-06-22T20:20:44;101262.00;;;30.51;49.00
58245;BME280;44550;43.864;25.986;2023-06-22T20:32:03;101260.78;;;29.61;52.29
58245;BME280;44550;43.864;25.986;2023-06-22T20:36:41;101257.78;;;29.37;53.33
58245;BME280;44550;43.864;25.986;2023-06-22T20:41:43;101258.28;;;29.00;55.04
58245;BME280;44550;43.864;25.986;2023-06-22T20:45:46;101251.44;;;28.95;54.71
58245;BME280;44550;43.864;25.986;2023-06-22T20:50:29;101253.91;;;28.84;55.91
58245;BME280;44550;43.864;25.986;2023-06-22T20:55:36;101260.25;;;28.83;56.35
58245;BME280;44550;43.864;25.986;2023-06-22T21:00:56;101252.44;;;28.64;56.90
58245;BME280;44550;43.864;25.986;2023-06-22T21:05:29;101256.59;;;28.69;57.55
58245;BME280;44550;43.864;25.986;2023-06-22T21:09:55;101222.63;;;28.52;57.46
58245;BME280;44550;43.864;25.986;2023-06-22T21:14:15;101219.69;;;28.11;59.73
58245;BME280;44550;43.864;25.986;2023-06-22T21:18:28;101246.47;;;28.59;58.66
58245;BME280;44550;43.864;25.986;2023-06-22T21:22:48;101252.78;;;28.88;58.54
58245;BME280;44550;43.864;25.986;2023-06-22T21:32:23;101238.97;;;28.64;63.09
58245;BME280;44550;43.864;25.986;2023-06-22T21:36:59;101244.31;;;28.19;69.79
58245;BME280;44550;43.864;25.986;2023-06-22T22:31:38;101213.91;;;27.71;63.04
58245;BME280;44550;43.864;25.986;2023-06-22T22:42:09;101208.91;;;27.33;63.45
58245;BME280;44550;43.864;25.986;2023-06-22T22:47:24;101237.41;;;27.03;66.92
58245;BME280;44550;43.864;25.986;2023-06-22T22:51:58;101231.25;;;26.67;68.64
58245;BME280;44550;43.864;25.986;2023-06-22T22:56:53;101220.47;;;25.98;71.11
58245;BME280;44550;43.864;25.986;2023-06-22T23:01:50;101226.47;;;25.48;73.80
58245;BME280;44550;43.864;25.986;2023-06-22T23:11:25;101214.31;;;25.96;69.96
58245;BME280;44550;43.864;25.986;2023-06-22T23:16:19;101206.75;;;25.87;69.41
58245;BME280;44550;43.864;25.986;2023-06-22T23:26:35;101201.91;;;25.57;71.55
58245;BME280;44550;43.864;25.986;2023-06-22T23:31:16;101200.81;;;25.61;71.58
58245;BME280;44550;43.864;25.986;2023-06-22T23:35:36;101202.09;;;25.71;71.43
58245;BME280;44550;43.864;25.986;2023-06-22T23:39:57;101208.28;;;25.73;71.43
58245;BME280;44550;43.864;25.986;2023-06-22T23:44:28;101190.72;;;25.30;73.26
58245;BME280;44550;43.864;25.986;2023-06-22T23:48:59;101193.69;;;25.24;74.43
58245;BME280;44550;43.864;25.986;2023-06-22T23:58:39;101188.66;;;24.97;75.79
